sensor_id;sensor_type;location;lat;lon;timestamp;temperature;humidity
18207;DHT22;9229;52.354;20.886;2023-01-13T00:05:03;7.20;99.90
18207;DHT22;9229;52.354;20.886;2023-01-13T00:10:07;7.20;99.90
18207;DHT22;9229;52.354;20.886;2023-01-13T00:15:10;7.20;99.90
18207;DHT22;9229;52.354;20.886;2023-01-13T00:20:14;7.20;99.90
18207;DHT22;9229;52.354;20.886;2023-01-13T00:25:16;7.20;99.90
18207;DHT22;9229;52.354;20.886;2023-01-13T00:30:19;7.10;99.90
18207;DHT22;9229;52.354;20.886;2023-01-13T00:35:22;7.10;99.90
18207;DHT22;9229;52.354;20.886;2023-01-13T00:40:24;7.00;99.90
18207;DHT22;9229;52.354;20.886;2023-01-13T00:45:26;6.90;99.90
18207;DHT22;9229;52.354;20.886;2023-01-13T00:50:30;6.90;99.90
18207;DHT22;9229;52.354;20.886;2023-01-13T00:55:32;6.80;99.90
18207;DHT22;9229;52.354;20.886;2023-01-13T01:00:34;6.80;99.90
18207;DHT22;9229;52.354;20.886;2023-01-13T01:05:47;6.80;99.90
18207;DHT22;9229;52.354;20.886;2023-01-13T01:11:00;6.80;99.90
18207;DHT22;9229;52.354;20.886;2023-01-13T01:16:03;6.70;99.90
18207;DHT22;9229;52.354;20.886;2023-01-13T01:21:09;6.70;99.90
18207;DHT22;9229;52.354;20.886;2023-01-13T01:26:16;6.60;99.90
18207;DHT22;9229;52.354;20.886;2023-01-13T01:31:21;6.60;99.90
18207;DHT22;9229;52.354;20.886;2023-01-13T01:36:26;6.50;99.90
18207;DHT22;9229;52.354;20.886;2023-01-13T01:41:31;6.50;99.90
18207;DHT22;9229;52.354;20.886;2023-01-13T01:46:39;6.60;99.90
18207;DHT22;9229;52.354;20.886;2023-01-13T01:51:45;6.50;99.90
18207;DHT22;9229;52.354;20.886;2023-01-13T01:56:48;6.50;99.90
18207;DHT22;9229;52.354;20.886;2023-01-13T02:01:50;6.50;99.90
18207;DHT22;9229;52.354;20.886;2023-01-13T02:06:54;6.40;99.90
18207;DHT22;9229;52.354;20.886;2023-01-13T02:11:58;6.40;99.90
18207;DHT22;9229;52.354;20.886;2023-01-13T02:17:24;6.40;99.90
18207;DHT22;9229;52.354;20.886;2023-01-13T02:22:45;6.40;99.90
18207;DHT22;9229;52.354;20.886;2023-01-13T02:28:29;6.40;99.90
18207;DHT22;9229;52.354;20.886;2023-01-13T02:34:02;6.40;99.90
18207;DHT22;9229;52.354;20.886;2023-01-13T02:39:12;6.50;99.90
18207;DHT22;9229;52.354;20.886;2023-01-13T02:44:23;6.50;99.90
18207;DHT22;9229;52.354;20.886;2023-01-13T02:49:33;6.50;99.90
18207;DHT22;9229;52.354;20.886;2023-01-13T02:54:38;6.50;99.90
18207;DHT22;9229;52.354;20.886;2023-01-13T02:59:42;6.50;99.90
18207;DHT22;9229;52.354;20.886;2023-01-13T03:04:53;6.60;99.90
18207;DHT22;9229;52.354;20.886;2023-01-13T03:10:02;6.60;99.90
18207;DHT22;9229;52.354;20.886;2023-01-13T03:15:12;6.70;99.90
18207;DHT22;9229;52.354;20.886;2023-01-13T03:20:23;6.50;99.90
18207;DHT22;9229;52.354;20.886;2023-01-13T03:25:28;6.50;99.90
18207;DHT22;9229;52.354;20.886;2023-01-13T03:30:37;6.50;99.90
18207;DHT22;9229;52.354;20.886;2023-01-13T03:35:44;6.50;99.90
18207;DHT22;9229;52.354;20.886;2023-01-13T03:40:49;6.40;99.90
18207;DHT22;9229;52.354;20.886;2023-01-13T03:45:54;6.40;99.90
18207;DHT22;9229;52.354;20.886;2023-01-13T03:51:03;6.40;99.90
18207;DHT22;9229;52.354;20.886;2023-01-13T04:02:06;6.40;99.90
18207;DHT22;9229;52.354;20.886;2023-01-13T04:07:17;6.40;99.90
18207;DHT22;9229;52.354;20.886;2023-01-13T04:12:26;6.50;99.90
18207;DHT22;9229;52.354;20.886;2023-01-13T04:17:49;6.30;99.90
18207;DHT22;9229;52.354;20.886;2023-01-13T04:22:52;6.30;99.90
18207;DHT22;9229;52.354;20.886;2023-01-13T04:27:54;6.30;99.90
18207;DHT22;9229;52.354;20.886;2023-01-13T04:32:56;6.30;99.90
18207;DHT22;9229;52.354;20.886;2023-01-13T04:38:01;6.30;99.90
18207;DHT22;9229;52.354;20.886;2023-01-13T04:43:03;6.30;99.90
18207;DHT22;9229;52.354;20.886;2023-01-13T04:48:05;6.30;99.90
18207;DHT22;9229;52.354;20.886;2023-01-13T04:53:09;6.40;99.90
18207;DHT22;9229;52.354;20.886;2023-01-13T04:58:11;6.30;99.90
18207;DHT22;9229;52.354;20.886;2023-01-13T05:03:16;6.30;99.90
18207;DHT22;9229;52.354;20.886;2023-01-13T05:08:19;6.30;99.90
18207;DHT22;9229;52.354;20.886;2023-01-13T05:13:22;6.30;99.90
18207;DHT22;9229;52.354;20.886;2023-01-13T05:18:41;6.30;99.90
18207;DHT22;9229;52.354;20.886;2023-01-13T05:23:45;6.30;99.90
18207;DHT22;9229;52.354;20.886;2023-01-13T05:29:04;6.30;99.90
18207;DHT22;9229;52.354;20.886;2023-01-13T05:34:06;6.30;99.90
18207;DHT22;9229;52.354;20.886;2023-01-13T05:39:10;6.30;99.90
18207;DHT22;9229;52.354;20.886;2023-01-13T05:44:12;6.30;99.90
18207;DHT22;9229;52.354;20.886;2023-01-13T05:49:14;6.30;99.90
18207;DHT22;9229;52.354;20.886;2023-01-13T05:54:18;6.30;99.90
18207;DHT22;9229;52.354;20.886;2023-01-13T05:59:20;6.30;99.90
18207;DHT22;9229;52.354;20.886;2023-01-13T06:04:22;6.30;99.90
18207;DHT22;9229;52.354;20.886;2023-01-13T06:09:26;6.30;99.90
18207;DHT22;9229;52.354;20.886;2023-01-13T06:14:30;6.30;99.90
18207;DHT22;9229;52.354;20.886;2023-01-13T06:19:40;6.30;99.90
18207;DHT22;9229;52.354;20.886;2023-01-13T06:24:46;6.40;99.90
18207;DHT22;9229;52.354;20.886;2023-01-13T06:29:49;6.40;99.90
18207;DHT22;9229;52.354;20.886;2023-01-13T06:34:55;6.40;99.90
18207;DHT22;9229;52.354;20.886;2023-01-13T06:45:37;6.40;99.90
18207;DHT22;9229;52.354;20.886;2023-01-13T06:50:50;6.50;99.90
18207;DHT22;9229;52.354;20.886;2023-01-13T06:55:54;6.50;99.90
18207;DHT22;9229;52.354;20.886;2023-01-13T07:00:59;6.60;99.90
18207;DHT22;9229;52.354;20.886;2023-01-13T07:06:12;6.50;99.90
18207;DHT22;9229;52.354;20.886;2023-01-13T07:11:21;6.50;99.90
18207;DHT22;9229;52.354;20.886;2023-01-13T07:16:26;6.50;99.90
18207;DHT22;9229;52.354;20.886;2023-01-13T07:21:28;6.40;99.90
18207;DHT22;9229;52.354;20.886;2023-01-13T07:26:35;6.50;99.90
18207;DHT22;9229;52.354;20.886;2023-01-13T07:31:40;6.60;99.90
18207;DHT22;9229;52.354;20.886;2023-01-13T07:36:44;6.60;99.90
18207;DHT22;9229;52.354;20.886;2023-01-13T07:42:03;6.60;99.90
18207;DHT22;9229;52.354;20.886;2023-01-13T07:47:33;6.60;99.90
18207;DHT22;9229;52.354;20.886;2023-01-13T07:52:36;6.70;99.90
18207;DHT22;9229;52.354;20.886;2023-01-13T07:57:49;6.70;99.90
18207;DHT22;9229;52.354;20.886;2023-01-13T08:03:00;6.70;99.90
18207;DHT22;9229;52.354;20.886;2023-01-13T08:08:35;6.70;99.90
18207;DHT22;9229;52.354;20.886;2023-01-13T08:13:46;6.80;99.90
18207;DHT22;9229;52.354;20.886;2023-01-13T08:18:59;6.80;99.90
18207;DHT22;9229;52.354;20.886;2023-01-13T08:24:04;6.90;99.90
18207;DHT22;9229;52.354;20.886;2023-01-13T08:29:08;6.90;99.90
18207;DHT22;9229;52.354;20.886;2023-01-13T08:34:10;7.00;99.90
18207;DHT22;9229;52.354;20.886;2023-01-13T08:39:12;7.00;99.90
18207;DHT22;9229;52.354;20.886;2023-01-13T08:44:16;7.20;99.90
18207;DHT22;9229;52.354;20.886;2023-01-13T08:49:25;7.30;99.90
18207;DHT22;9229;52.354;20.886;2023-01-13T08:54:27;7.30;99.90
18207;DHT22;9229;52.354;20.886;2023-01-13T08:59:31;7.30;99.90
18207;DHT22;9229;52.354;20.886;2023-01-13T09:04:33;7.30;99.90
18207;DHT22;9229;52.354;20.886;2023-01-13T09:09:40;7.30;99.90
18207;DHT22;9229;52.354;20.886;2023-01-13T09:14:55;7.30;99.90
18207;DHT22;9229;52.354;20.886;2023-01-13T09:19:59;7.40;99.90
18207;DHT22;9229;52.354;20.886;2023-01-13T09:25:08;7.50;99.90
18207;DHT22;9229;52.354;20.886;2023-01-13T09:30:17;7.50;99.90
18207;DHT22;9229;52.354;20.886;2023-01-13T09:35:19;7.70;99.90
18207;DHT22;9229;52.354;20.886;2023-01-13T09:40:21;7.70;99.90
18207;DHT22;9229;52.354;20.886;2023-01-13T09:45:30;7.80;99.90
18207;DHT22;9229;52.354;20.886;2023-01-13T09:50:48;7.80;99.90
18207;DHT22;9229;52.354;20.886;2023-01-13T09:55:54;7.90;99.90
18207;DHT22;9229;52.354;20.886;2023-01-13T10:01:05;7.90;99.90
18207;DHT22;9229;52.354;20.886;2023-01-13T10:06:13;8.00;99.90
18207;DHT22;9229;52.354;20.886;2023-01-13T10:11:18;8.00;99.90
18207;DHT22;9229;52.354;20.886;2023-01-13T10:16:44;8.20;99.90
18207;DHT22;9229;52.354;20.886;2023-01-13T10:22:07;8.30;99.90
18207;DHT22;9229;52.354;20.886;2023-01-13T10:27:19;8.40;99.90
18207;DHT22;9229;52.354;20.886;2023-01-13T10:32:26;8.50;99.90
18207;DHT22;9229;52.354;20.886;2023-01-13T10:37:28;8.60;99.90
18207;DHT22;9229;52.354;20.886;2023-01-13T10:42:30;8.60;99.90
18207;DHT22;9229;52.354;20.886;2023-01-13T10:47:36;8.60;99.90
18207;DHT22;9229;52.354;20.886;2023-01-13T10:52:40;8.80;99.90
18207;DHT22;9229;52.354;20.886;2023-01-13T10:58:10;8.70;99.90
18207;DHT22;9229;52.354;20.886;2023-01-13T11:03:17;8.80;99.90
18207;DHT22;9229;52.354;20.886;2023-01-13T11:08:22;8.80;99.90
18207;DHT22;9229;52.354;20.886;2023-01-13T11:13:32;9.00;99.90
18207;DHT22;9229;52.354;20.886;2023-01-13T11:19:09;8.80;99.90
18207;DHT22;9229;52.354;20.886;2023-01-13T11:24:28;8.90;99.90
18207;DHT22;9229;52.354;20.886;2023-01-13T11:29:44;8.90;99.90
18207;DHT22;9229;52.354;20.886;2023-01-13T11:34:58;8.90;99.90
18207;DHT22;9229;52.354;20.886;2023-01-13T11:40:05;9.00;99.90
18207;DHT22;9229;52.354;20.886;2023-01-13T11:45:19;9.10;99.90
18207;DHT22;9229;52.354;20.886;2023-01-13T11:50:32;9.00;99.90
18207;DHT22;9229;52.354;20.886;2023-01-13T11:55:42;9.10;99.90
18207;DHT22;9229;52.354;20.886;2023-01-13T12:01:06;9.10;99.90
18207;DHT22;9229;52.354;20.886;2023-01-13T12:06:18;9.10;99.90
18207;DHT22;9229;52.354;20.886;2023-01-13T12:11:26;9.00;99.90
18207;DHT22;9229;52.354;20.886;2023-01-13T12:16:30;9.10;99.90
18207;DHT22;9229;52.354;20.886;2023-01-13T12:21:37;9.10;99.90
18207;DHT22;9229;52.354;20.886;2023-01-13T12:26:43;9.20;99.90
18207;DHT22;9229;52.354;20.886;2023-01-13T12:31:48;9.20;99.90
18207;DHT22;9229;52.354;20.886;2023-01-13T12:36:59;9.20;99.90
18207;DHT22;9229;52.354;20.886;2023-01-13T12:42:09;9.20;99.90
18207;DHT22;9229;52.354;20.886;2023-01-13T12:47:34;9.30;99.90
18207;DHT22;9229;52.354;20.886;2023-01-13T12:52:43;9.50;99.90
18207;DHT22;9229;52.354;20.886;2023-01-13T12:58:14;9.60;99.90
18207;DHT22;9229;52.354;20.886;2023-01-13T13:03:33;9.60;99.90
18207;DHT22;9229;52.354;20.886;2023-01-13T13:08:49;9.60;99.90
18207;DHT22;9229;52.354;20.886;2023-01-13T13:13:53;9.60;99.90
18207;DHT22;9229;52.354;20.886;2023-01-13T13:19:44;9.50;99.90
18207;DHT22;9229;52.354;20.886;2023-01-13T13:25:20;9.50;99.90
18207;DHT22;9229;52.354;20.886;2023-01-13T13:30:24;9.40;99.90
18207;DHT22;9229;52.354;20.886;2023-01-13T13:35:39;9.40;99.90
18207;DHT22;9229;52.354;20.886;2023-01-13T13:40:48;9.30;99.90
18207;DHT22;9229;52.354;20.886;2023-01-13T13:46:25;9.30;99.90
18207;DHT22;9229;52.354;20.886;2023-01-13T13:51:49;9.20;99.90
18207;DHT22;9229;52.354;20.886;2023-01-13T13:56:56;9.20;99.90
18207;DHT22;9229;52.354;20.886;2023-01-13T14:02:01;9.20;99.90
18207;DHT22;9229;52.354;20.886;2023-01-13T14:07:16;9.20;99.90
18207;DHT22;9229;52.354;20.886;2023-01-13T14:12:23;9.10;99.90
18207;DHT22;9229;52.354;20.886;2023-01-13T14:17:26;9.10;99.90
18207;DHT22;9229;52.354;20.886;2023-01-13T14:22:28;8.90;99.90
18207;DHT22;9229;52.354;20.886;2023-01-13T14:27:33;8.80;99.90
18207;DHT22;9229;52.354;20.886;2023-01-13T14:32:35;8.80;99.90
18207;DHT22;9229;52.354;20.886;2023-01-13T14:37:39;8.60;99.90
18207;DHT22;9229;52.354;20.886;2023-01-13T14:42:44;8.70;99.90
18207;DHT22;9229;52.354;20.886;2023-01-13T14:47:51;8.50;99.90
18207;DHT22;9229;52.354;20.886;2023-01-13T14:52:54;8.50;99.90
18207;DHT22;9229;52.354;20.886;2023-01-13T14:58:21;8.40;99.90
18207;DHT22;9229;52.354;20.886;2023-01-13T15:03:24;8.30;99.90
18207;DHT22;9229;52.354;20.886;2023-01-13T15:08:39;8.30;99.90
18207;DHT22;9229;52.354;20.886;2023-01-13T15:13:44;8.30;99.90
18207;DHT22;9229;52.354;20.886;2023-01-13T15:18:47;8.30;99.90
18207;DHT22;9229;52.354;20.886;2023-01-13T15:23:50;8.30;99.90
18207;DHT22;9229;52.354;20.886;2023-01-13T15:28:56;8.30;99.90
18207;DHT22;9229;52.354;20.886;2023-01-13T15:34:00;8.30;99.90
18207;DHT22;9229;52.354;20.886;2023-01-13T15:39:02;8.30;99.90
18207;DHT22;9229;52.354;20.886;2023-01-13T15:44:21;8.40;99.90
18207;DHT22;9229;52.354;20.886;2023-01-13T15:49:47;8.40;99.90
18207;DHT22;9229;52.354;20.886;2023-01-13T15:54:53;8.50;99.90
18207;DHT22;9229;52.354;20.886;2023-01-13T16:00:00;8.50;99.90
18207;DHT22;9229;52.354;20.886;2023-01-13T16:05:07;8.60;99.90
18207;DHT22;9229;52.354;20.886;2023-01-13T16:10:15;8.70;99.90
18207;DHT22;9229;52.354;20.886;2023-01-13T16:15:19;8.80;99.90
18207;DHT22;9229;52.354;20.886;2023-01-13T16:20:22;8.80;99.90
18207;DHT22;9229;52.354;20.886;2023-01-13T16:25:26;8.90;99.90
18207;DHT22;9229;52.354;20.886;2023-01-13T16:30:30;9.00;99.90
18207;DHT22;9229;52.354;20.886;2023-01-13T16:35:33;9.00;99.90
18207;DHT22;9229;52.354;20.886;2023-01-13T16:40:35;9.10;99.90
18207;DHT22;9229;52.354;20.886;2023-01-13T16:45:39;9.10;99.90
18207;DHT22;9229;52.354;20.886;2023-01-13T16:50:42;9.10;99.90
18207;DHT22;9229;52.354;20.886;2023-01-13T16:55:44;9.10;99.90
18207;DHT22;9229;52.354;20.886;2023-01-13T17:00:48;9.20;99.90
18207;DHT22;9229;52.354;20.886;2023-01-13T17:05:53;9.20;99.90
18207;DHT22;9229;52.354;20.886;2023-01-13T17:10:55;9.20;99.90
18207;DHT22;9229;52.354;20.886;2023-01-13T17:15:59;9.20;99.90
18207;DHT22;9229;52.354;20.886;2023-01-13T17:21:02;9.20;99.90
18207;DHT22;9229;52.354;20.886;2023-01-13T17:26:04;9.30;99.90
18207;DHT22;9229;52.354;20.886;2023-01-13T17:31:12;9.30;99.90
18207;DHT22;9229;52.354;20.886;2023-01-13T17:36:16;9.30;99.90
18207;DHT22;9229;52.354;20.886;2023-01-13T17:41:18;9.30;99.90
18207;DHT22;9229;52.354;20.886;2023-01-13T17:46:21;9.30;99.90
18207;DHT22;9229;52.354;20.886;2023-01-13T17:51:25;9.20;99.90
18207;DHT22;9229;52.354;20.886;2023-01-13T17:56:27;9.20;99.90
18207;DHT22;9229;52.354;20.886;2023-01-13T18:01:31;9.20;99.90
18207;DHT22;9229;52.354;20.886;2023-01-13T18:06:33;9.20;99.90
18207;DHT22;9229;52.354;20.886;2023-01-13T18:11:35;9.10;99.90
18207;DHT22;9229;52.354;20.886;2023-01-13T18:16:39;9.10;99.90
18207;DHT22;9229;52.354;20.886;2023-01-13T18:21:41;9.10;99.90
18207;DHT22;9229;52.354;20.886;2023-01-13T18:27:01;9.00;99.90
18207;DHT22;9229;52.354;20.886;2023-01-13T18:32:27;8.90;99.90
18207;DHT22;9229;52.354;20.886;2023-01-13T18:37:31;8.90;99.90
18207;DHT22;9229;52.354;20.886;2023-01-13T18:42:35;8.80;99.90
18207;DHT22;9229;52.354;20.886;2023-01-13T18:47:56;8.80;99.90
18207;DHT22;9229;52.354;20.886;2023-01-13T18:53:00;8.80;99.90
18207;DHT22;9229;52.354;20.886;2023-01-13T18:58:02;8.70;99.90
18207;DHT22;9229;52.354;20.886;2023-01-13T19:03:06;8.70;99.90
18207;DHT22;9229;52.354;20.886;2023-01-13T19:08:08;8.70;99.90
18207;DHT22;9229;52.354;20.886;2023-01-13T19:13:13;8.80;99.90
18207;DHT22;9229;52.354;20.886;2023-01-13T19:18:17;8.80;99.90
18207;DHT22;9229;52.354;20.886;2023-01-13T19:23:24;8.80;99.90
18207;DHT22;9229;52.354;20.886;2023-01-13T19:28:26;8.80;99.90
18207;DHT22;9229;52.354;20.886;2023-01-13T19:33:31;8.80;99.90
18207;DHT22;9229;52.354;20.886;2023-01-13T19:38:35;8.80;99.90
18207;DHT22;9229;52.354;20.886;2023-01-13T19:43:37;8.80;99.90
18207;DHT22;9229;52.354;20.886;2023-01-13T19:48:58;8.80;99.90
18207;DHT22;9229;52.354;20.886;2023-01-13T19:54:01;8.80;99.90
18207;DHT22;9229;52.354;20.886;2023-01-13T19:59:03;8.80;99.90
18207;DHT22;9229;52.354;20.886;2023-01-13T20:04:07;8.80;99.90
18207;DHT22;9229;52.354;20.886;2023-01-13T20:09:13;8.80;99.90
18207;DHT22;9229;52.354;20.886;2023-01-13T20:14:16;8.80;99.90
18207;DHT22;9229;52.354;20.886;2023-01-13T20:19:20;8.80;99.90
18207;DHT22;9229;52.354;20.886;2023-01-13T20:24:22;8.80;99.90
18207;DHT22;9229;52.354;20.886;2023-01-13T20:29:26;8.80;99.90
18207;DHT22;9229;52.354;20.886;2023-01-13T20:34:30;8.80;99.90
18207;DHT22;9229;52.354;20.886;2023-01-13T20:39:32;8.70;99.90
18207;DHT22;9229;52.354;20.886;2023-01-13T20:44:35;8.70;99.90
18207;DHT22;9229;52.354;20.886;2023-01-13T20:49:39;8.70;99.90
18207;DHT22;9229;52.354;20.886;2023-01-13T20:54:41;8.70;99.90
18207;DHT22;9229;52.354;20.886;2023-01-13T20:59:43;8.60;99.90
18207;DHT22;9229;52.354;20.886;2023-01-13T21:04:47;8.60;99.90
18207;DHT22;9229;52.354;20.886;2023-01-13T21:09:49;8.60;99.90
18207;DHT22;9229;52.354;20.886;2023-01-13T21:14:51;8.50;99.90
18207;DHT22;9229;52.354;20.886;2023-01-13T21:20:13;8.50;99.90
18207;DHT22;9229;52.354;20.886;2023-01-13T21:25:16;8.50;99.90
18207;DHT22;9229;52.354;20.886;2023-01-13T21:30:20;8.50;99.90
18207;DHT22;9229;52.354;20.886;2023-01-13T21:35:23;8.40;99.90
18207;DHT22;9229;52.354;20.886;2023-01-13T21:40:25;8.40;99.90
18207;DHT22;9229;52.354;20.886;2023-01-13T21:45:27;8.30;99.90
18207;DHT22;9229;52.354;20.886;2023-01-13T21:50:48;8.30;99.90
18207;DHT22;9229;52.354;20.886;2023-01-13T21:55:51;8.20;99.90
18207;DHT22;9229;52.354;20.886;2023-01-13T22:00:53;8.20;99.90
18207;DHT22;9229;52.354;20.886;2023-01-13T22:06:00;8.20;99.90
18207;DHT22;9229;52.354;20.886;2023-01-13T22:11:02;8.10;99.90
18207;DHT22;9229;52.354;20.886;2023-01-13T22:16:05;8.10;99.90
18207;DHT22;9229;52.354;20.886;2023-01-13T22:21:10;8.00;99.90
18207;DHT22;9229;52.354;20.886;2023-01-13T22:26:12;7.90;99.90
18207;DHT22;9229;52.354;20.886;2023-01-13T22:31:15;7.80;99.90
18207;DHT22;9229;52.354;20.886;2023-01-13T22:36:20;7.80;99.90
18207;DHT22;9229;52.354;20.886;2023-01-13T22:41:23;7.70;99.90
18207;DHT22;9229;52.354;20.886;2023-01-13T22:46:25;7.60;99.90
18207;DHT22;9229;52.354;20.886;2023-01-13T22:51:30;7.50;99.90
18207;DHT22;9229;52.354;20.886;2023-01-13T22:56:33;7.50;99.90
18207;DHT22;9229;52.354;20.886;2023-01-13T23:01:35;7.40;99.90
18207;DHT22;9229;52.354;20.886;2023-01-13T23:06:40;7.30;99.90
18207;DHT22;9229;52.354;20.886;2023-01-13T23:11:42;7.30;99.90
18207;DHT22;9229;52.354;20.886;2023-01-13T23:16:45;7.30;99.90
18207;DHT22;9229;52.354;20.886;2023-01-13T23:21:49;7.20;99.90
18207;DHT22;9229;52.354;20.886;2023-01-13T23:26:51;7.20;99.90
18207;DHT22;9229;52.354;20.886;2023-01-13T23:31:54;7.10;99.90
18207;DHT22;9229;52.354;20.886;2023-01-13T23:36:58;7.10;99.90
18207;DHT22;9229;52.354;20.886;2023-01-13T23:42:00;7.10;99.90
18207;DHT22;9229;52.354;20.886;2023-01-13T23:47:02;7.00;99.90
18207;DHT22;9229;52.354;20.886;2023-01-13T23:52:09;7.00;99.90
18207;DHT22;9229;52.354;20.886;2023-01-13T23:57:13;7.00;99.90
